Flight Track Log - Related Links

Times and Time Zones

All times are in EDT time to prevent confusion due to time zone crossing. See the JZA8349 flight status page for this flight to view local times or setup timezone preferences in your user account.

Time Position Orientation Groundspeed Altitude Reporting Facility
EDT Latitude Longitude Course Direction KTS MPH feet Rate Location/Type
Tue 08:33:29 PM 49.8833 -97.2333 278° West 20 23 700  Level Winnipeg Center
Tue 08:34:29 PM 49.9167 -97.2833 316° Northwest 170 196 2,200 2,000 Climbing Winnipeg Center
Tue 08:35:29 PM 49.9500 -97.3333 316° Northwest 190 219 4,700 2,350 Climbing Winnipeg Center
Tue 08:36:29 PM 49.9833 -97.3833 316° Northwest 220 253 6,900 2,000 Climbing Winnipeg Center
Tue 08:37:29 PM 49.9833 -97.5167 270° West 270 311 8,700 2,000 Climbing Winnipeg Center
Tue 08:38:29 PM 50.0000 -97.6167 285° West 280 322 10,900 2,300 Climbing Winnipeg Center
Tue 08:39:00 PM 50.0213 -98.2383 278° West  Level FlightAware Approximate
Tue 08:39:29 PM 50.0167 -97.7500 281° West 280 322 13,300  Level Winnipeg Center
Tue 08:40:00 PM 50.0359 -98.4120 278° West  Level FlightAware Approximate
Tue 08:40:29 PM 50.0167 -97.8833 270° West 290 334 15,600  Level Winnipeg Center
Tue 08:41:29 PM 50.0333 -97.9833 285° West 300 345 17,400 1,850 Climbing Winnipeg Center
Tue 08:42:29 PM 50.0167 -98.1167 259° West 300 345 19,300 1,750 Climbing Winnipeg Center
Tue 08:43:29 PM 50.0167 -98.2500 270° West 300 345 20,900 1,500 Climbing Winnipeg Center
Tue 08:44:29 PM 50.0000 -98.4000 260° West 310 357 22,300 1,200 Climbing Winnipeg Center
Tue 08:45:29 PM 50.0000 -98.5333 270° West 320 368 23,300 1,100 Climbing Winnipeg Center
Tue 08:46:29 PM 49.9833 -98.6500 258° West 330 380 24,500 1,150 Climbing Winnipeg Center
Tue 08:47:29 PM 49.9833 -98.8167 270° West 330 380 25,600 1,100 Climbing Winnipeg Center
Tue 08:48:29 PM 49.9833 -98.9500 270° West 330 380 26,700 1,100 Climbing Winnipeg Center
Tue 08:49:29 PM 49.9833 -99.1000 270° West 330 380 27,800 650 Climbing Winnipeg Center
Tue 08:50:29 PM 50.0000 -99.2333 281° West 330 380 28,000 500 Climbing Winnipeg Center
Tue 08:51:29 PM 50.0167 -99.3833 280° West 340 391 28,800 850 Climbing Winnipeg Center
Tue 08:52:29 PM 50.0500 -99.5167 291° West 350 403 29,700 1,000 Climbing Winnipeg Center
Tue 08:53:29 PM 50.0667 -99.6833 279° West 340 391 30,800 1,000 Climbing Winnipeg Center
Tue 08:54:29 PM 50.0833 -99.8000 283° West 330 380 31,700 600 Climbing Winnipeg Center
Tue 08:55:29 PM 50.1000 -99.9333 281° West 320 368 32,000 150 Climbing Winnipeg Center
Tue 08:56:29 PM 50.1000 -100.1000 270° West 330 380 32,000  Level Winnipeg Center
Tue 08:57:29 PM 50.1167 -100.2333 281° West 350 403 32,000  Level Winnipeg Center
Tue 08:58:29 PM 50.1167 -100.3833 270° West 350 403 32,000  Level Winnipeg Center
Tue 08:59:29 PM 50.1333 -100.5500 279° West 360 414 32,000  Level Winnipeg Center
Tue 09:00:29 PM 50.1333 -100.7000 270° West 360 414 32,000  Level Winnipeg Center
Tue 09:01:29 PM 50.1500 -100.8500 280° West 360 414 32,000  Level Winnipeg Center
Tue 09:02:29 PM 50.1667 -101.0167 279° West 370 426 32,000  Level Winnipeg Center
Tue 09:03:29 PM 50.1667 -101.1667 270° West 370 426 32,000  Level Winnipeg Center
Tue 09:04:29 PM 50.1667 -101.3500 270° West 370 426 32,000  Level Winnipeg Center
Tue 09:05:29 PM 50.1667 -101.5167 270° West 370 426 32,000  Level Winnipeg Center
Tue 09:06:29 PM 50.1833 -101.6500 281° West 370 426 32,000  Level Winnipeg Center
Tue 09:07:29 PM 50.2000 -101.8333 278° West 370 426 32,000  Level Winnipeg Center
Tue 09:08:29 PM 50.2000 -101.9833 270° West 380 437 32,000  Level Winnipeg Center
Tue 09:09:29 PM 50.2167 -102.1500 279° West 380 437 32,000  Level Winnipeg Center
Tue 09:10:29 PM 50.2000 -102.3000 260° West 380 437 32,000  Level Winnipeg Center
Tue 09:11:29 PM 50.2167 -102.4667 279° West 380 437 32,000  Level Winnipeg Center
Tue 09:12:29 PM 50.2167 -102.6500 270° West 380 437 32,000  Level Winnipeg Center
Tue 09:13:29 PM 50.2333 -102.8000 280° West 380 437 32,000 -1,450 Level Winnipeg Center
Tue 09:14:29 PM 50.2333 -102.9833 270° West 390 449 29,100 -2,900 Descending Winnipeg Center
Tue 09:15:29 PM 50.2500 -103.1500 279° West 390 449 26,200 -2,950 Descending Winnipeg Center
Tue 09:16:29 PM 50.2500 -103.3333 270° West 380 437 23,200 -2,850 Descending Winnipeg Center
Tue 09:17:29 PM 50.2667 -103.4667 281° West 360 414 20,500 -2,700 Descending Winnipeg Center
Tue 09:18:29 PM 50.2500 -103.6167 260° West 350 403 17,800 -2,650 Descending Winnipeg Center
Tue 09:19:29 PM 50.2667 -103.7833 279° West 340 391 15,200 -2,400 Descending Winnipeg Center
Tue 09:20:29 PM 50.2667 -103.9167 270° West 320 368 13,000 -2,050 Descending Winnipeg Center
Tue 09:21:29 PM 50.2833 -104.0500 281° West 310 357 11,100 -1,750 Descending Winnipeg Center
Tue 09:22:29 PM 50.2667 -104.1667 257° West 270 311 9,500 -1,850 Descending Winnipeg Center
Tue 09:23:29 PM 50.2833 -104.2833 283° West 260 299 7,400 -2,000 Descending Winnipeg Center
Tue 09:24:29 PM 50.2833 -104.3833 270° West 260 299 5,500 -1,750 Descending Winnipeg Center
Tue 09:25:29 PM 50.2833 -104.4833 270° West 250 288 3,900 -1,250 Descending Winnipeg Center
Tue 09:26:29 PM 50.3333 -104.5833 308° West 220 253 3,000 -650 Descending Winnipeg Center
Tue 09:27:29 PM 50.3833 -104.6167 337° Northwest 180 207 2,600 -550 Descending Winnipeg Center
Tue 09:28:29 PM 50.4000 -104.6667 298° West 140 161 1,900 -350 Descending Winnipeg Center
Tue 09:29:29 PM 50.4167 -104.7000 308° West 80 92 1,900  Level Winnipeg Center

Login

Don't have an account? Register now (free) for customized features, flight alerts, and more!